Main page
METAR-TAF:

METAR-TAF

Airports :

Piacenza Air Base

Piacenza, Italy

latitude: 44-55N, longitude: 009-44E, elevation: 134 m

Current weather observation

The report was made 18 minutes ago, at 12:55 UTC
Wind 3 kt from the West
Temperature 12°C
Humidity 47%
Pressure 1002 hPa
Visibility 10 km or more
no clouds below 1500 m and no cumulonimbus

METAR: LIMS 141255Z 26003KT CAVOK 12/01 Q1002

Time: 14:13 (13:13 UTC)


TAF: missing

Weather observations and forecasts of more than 4000 airports (METAR and TAF reports).

The available stations are represented by yellow and red dots on the map.

Hover mouse over dot to see the name of the station.

Then click to see weather observations and forecasts.

To change the map : click on the green buttons with a black cross to zoom in, on the green button with a dash to zoom out, or on the green arrows for adjacent maps.


METAR-TAF: